createdAt,value
2023-02-15T00:01:12.376Z,100.00
2023-02-15T00:03:42.058Z,100.00
2023-02-15T00:06:11.708Z,100.00
2023-02-15T00:08:41.227Z,100.00
2023-02-15T00:11:11.947Z,100.00
2023-02-15T00:13:44.768Z,100.00
2023-02-15T00:16:16.970Z,100.00
2023-02-15T00:18:46.481Z,100.00
2023-02-15T00:21:16.009Z,100.00
2023-02-15T00:23:45.529Z,100.00
2023-02-15T00:26:15.965Z,100.00
2023-02-15T00:28:46.678Z,100.00
2023-02-15T00:31:18.921Z,100.00
2023-02-15T00:33:48.486Z,100.00
2023-02-15T00:36:18.049Z,100.00
2023-02-15T00:38:47.613Z,100.00
2023-02-15T00:41:17.152Z,100.00
2023-02-15T00:43:46.695Z,100.00
2023-02-15T00:46:18.874Z,100.00
2023-02-15T00:48:48.439Z,100.00
2023-02-15T00:51:18.088Z,100.00
2023-02-15T00:53:47.925Z,100.00
2023-02-15T00:56:17.731Z,100.00
2023-02-15T00:58:47.418Z,100.00
2023-02-15T01:01:22.180Z,100.00
2023-02-15T01:03:54.670Z,100.00
2023-02-15T01:06:24.628Z,100.00
2023-02-15T01:08:54.159Z,100.00
2023-02-15T01:11:26.567Z,100.00
2023-02-15T01:13:58.851Z,100.00
2023-02-15T01:16:32.014Z,100.00
2023-02-15T01:19:03.744Z,100.00
2023-02-15T01:21:36.894Z,100.00
2023-02-15T01:24:06.887Z,100.00
2023-02-15T01:26:36.443Z,100.00
2023-02-15T01:29:06.064Z,100.00
2023-02-15T01:31:40.191Z,100.00
2023-02-15T01:34:10.305Z,100.00
2023-02-15T01:36:41.922Z,100.00
2023-02-15T01:39:11.600Z,100.00
2023-02-15T01:41:41.182Z,100.00
2023-02-15T01:44:40.716Z,100.00
2023-02-15T01:47:16.110Z,100.00
2023-02-15T01:49:47.946Z,100.00
2023-02-15T01:52:21.205Z,100.00
2023-02-15T01:54:51.568Z,100.00
2023-02-15T01:57:26.174Z,100.00
2023-02-15T02:00:00.333Z,100.00
2023-02-15T02:02:32.687Z,100.00
2023-02-15T02:05:07.536Z,100.00
2023-02-15T02:07:40.653Z,100.00
2023-02-15T02:10:12.200Z,100.00
2023-02-15T02:12:44.316Z,100.00
2023-02-15T02:15:14.150Z,100.00
2023-02-15T02:17:58.310Z,100.00
2023-02-15T02:20:49.794Z,100.00
2023-02-15T02:23:42.266Z,100.00
2023-02-15T02:26:46.830Z,100.00
2023-02-15T02:29:49.026Z,100.00
2023-02-15T02:32:41.990Z,100.00
2023-02-15T02:35:20.207Z,100.00
2023-02-15T02:37:59.904Z,100.00
2023-02-15T02:40:38.386Z,100.00
2023-02-15T02:43:18.083Z,100.00
2023-02-15T02:45:53.893Z,100.00
2023-02-15T02:48:26.728Z,100.00
2023-02-15T02:50:58.920Z,100.00
2023-02-15T02:53:29.825Z,100.00
2023-02-15T02:56:01.371Z,100.00
2023-02-15T02:58:38.348Z,100.00
2023-02-15T03:01:13.297Z,100.00
2023-02-15T03:03:47.506Z,100.00
2023-02-15T03:06:24.791Z,100.00
2023-02-15T03:08:58.761Z,100.00
2023-02-15T03:11:28.595Z,100.00
2023-02-15T03:13:58.652Z,100.00
2023-02-15T03:16:29.815Z,100.00
2023-02-15T03:19:03.748Z,100.00
2023-02-15T03:21:41.727Z,100.00
2023-02-15T03:24:16.708Z,100.00
2023-02-15T03:26:49.572Z,100.00
2023-02-15T03:29:21.342Z,100.00
2023-02-15T03:31:59.434Z,100.00
2023-02-15T03:34:29.561Z,100.00
2023-02-15T03:37:10.823Z,100.00
2023-02-15T03:39:45.904Z,100.00
2023-02-15T03:42:20.218Z,100.00
2023-02-15T03:44:57.617Z,100.00
2023-02-15T03:47:31.272Z,100.00
2023-02-15T03:50:05.258Z,100.00
2023-02-15T03:52:36.894Z,100.00
2023-02-15T03:55:06.803Z,100.00
2023-02-15T03:57:53.108Z,100.00
2023-02-15T04:00:39.021Z,100.00
2023-02-15T04:03:30.741Z,100.00
2023-02-15T04:06:00.945Z,100.00
2023-02-15T04:08:45.681Z,100.00
2023-02-15T04:11:15.203Z,100.00
2023-02-15T04:13:44.819Z,100.00
2023-02-15T04:16:11.809Z,100.00
2023-02-15T04:18:56.634Z,100.00
2023-02-15T04:21:40.997Z,100.00
2023-02-15T04:24:26.239Z,100.00
2023-02-15T04:26:56.868Z,100.00
2023-02-15T04:29:27.964Z,100.00
2023-02-15T04:31:59.229Z,100.00
2023-02-15T04:34:29.542Z,100.00
2023-02-15T04:36:59.160Z,100.00
2023-02-15T04:39:31.606Z,100.00
2023-02-15T04:42:01.265Z,100.00
2023-02-15T04:44:30.827Z,100.00
2023-02-15T04:47:00.383Z,100.00
2023-02-15T04:49:30.144Z,100.00
2023-02-15T04:51:59.723Z,100.00
2023-02-15T04:54:31.885Z,100.00
2023-02-15T04:57:01.527Z,100.00
2023-02-15T04:59:31.369Z,100.00
2023-02-15T05:02:00.992Z,100.00
2023-02-15T05:04:30.655Z,100.00
2023-02-15T05:07:00.247Z,100.00
2023-02-15T05:09:32.479Z,100.00
2023-02-15T05:12:02.070Z,100.00
2023-02-15T05:14:31.622Z,100.00
2023-02-15T05:17:02.567Z,100.00
2023-02-15T05:19:32.323Z,100.00
2023-02-15T05:22:01.997Z,100.00
2023-02-15T05:24:47.627Z,100.00
2023-02-15T05:27:29.704Z,100.00
2023-02-15T05:29:59.448Z,100.00
2023-02-15T05:32:29.184Z,100.00
2023-02-15T05:34:58.782Z,100.00
2023-02-15T05:37:28.294Z,100.00
2023-02-15T05:40:00.393Z,100.00
2023-02-15T05:42:29.923Z,100.00
2023-02-15T05:44:59.458Z,100.00
2023-02-15T05:47:29.232Z,100.00
2023-02-15T05:49:58.818Z,100.00
2023-02-15T05:52:28.582Z,100.00
2023-02-15T05:55:01.525Z,100.00
2023-02-15T05:57:31.163Z,100.00
2023-02-15T06:00:00.718Z,100.00
2023-02-15T06:02:30.404Z,100.00
2023-02-15T06:05:00.098Z,100.00
2023-02-15T06:07:29.640Z,100.00
2023-02-15T06:10:01.892Z,100.00
2023-02-15T06:12:31.730Z,100.00
2023-02-15T06:15:01.276Z,100.00
2023-02-15T06:17:30.849Z,100.00
2023-02-15T06:20:00.426Z,100.00
2023-02-15T06:22:30.058Z,100.00
2023-02-15T06:25:02.367Z,100.00
2023-02-15T06:27:31.901Z,100.00
2023-02-15T06:30:01.611Z,100.00
2023-02-15T06:32:31.809Z,100.00
2023-02-15T06:35:01.393Z,100.00
2023-02-15T06:37:31.558Z,100.00
2023-02-15T06:40:05.106Z,100.00
2023-02-15T06:42:34.969Z,100.00
2023-02-15T06:45:04.542Z,100.00
2023-02-15T06:47:34.232Z,100.00
2023-02-15T06:50:03.782Z,100.00
2023-02-15T06:52:33.321Z,100.00
2023-02-15T06:55:05.500Z,100.00
2023-02-15T06:57:35.163Z,100.00
2023-02-15T07:00:06.009Z,100.00
2023-02-15T07:02:36.932Z,100.00
2023-02-15T07:05:06.638Z,100.00
2023-02-15T07:07:36.446Z,100.00
2023-02-15T07:10:10.135Z,100.00
2023-02-15T07:12:43.445Z,100.00
2023-02-15T07:15:14.428Z,100.00
2023-02-15T07:17:44.503Z,100.00
2023-02-15T07:20:17.674Z,100.00
2023-02-15T07:22:47.710Z,100.00
2023-02-15T07:25:20.442Z,100.00
2023-02-15T07:27:50.038Z,100.00
2023-02-15T07:30:20.803Z,100.00
2023-02-15T07:33:05.259Z,100.00
2023-02-15T07:35:35.530Z,100.00
2023-02-15T07:38:05.179Z,100.00
2023-02-15T07:40:37.305Z,100.00
2023-02-15T07:43:06.899Z,100.00
2023-02-15T07:45:36.475Z,100.00
2023-02-15T07:48:06.586Z,100.00
2023-02-15T07:50:36.186Z,100.00
2023-02-15T07:53:06.800Z,100.00
2023-02-15T07:55:38.930Z,100.00
2023-02-15T07:58:08.454Z,100.00
2023-02-15T08:00:57.395Z,100.00
2023-02-15T08:03:27.916Z,100.00
2023-02-15T08:06:00.686Z,100.00
2023-02-15T08:08:34.048Z,100.00
2023-02-15T08:11:27.065Z,100.00
2023-02-15T08:14:00.326Z,100.00
2023-02-15T08:16:32.968Z,100.00
2023-02-15T08:19:04.641Z,100.00
2023-02-15T08:21:34.840Z,100.00
2023-02-15T08:24:05.140Z,100.00
2023-02-15T08:26:38.558Z,100.00
2023-02-15T08:29:10.313Z,100.00
2023-02-15T08:31:42.184Z,100.00
2023-02-15T08:34:12.697Z,100.00
2023-02-15T08:36:42.284Z,100.00
2023-02-15T08:39:11.953Z,100.00
2023-02-15T08:41:46.876Z,100.00
2023-02-15T08:44:18.653Z,100.00
2023-02-15T08:46:50.011Z,100.00
2023-02-15T08:49:21.737Z,100.00
2023-02-15T08:51:52.835Z,100.00
2023-02-15T08:54:24.434Z,100.00
2023-02-15T08:56:56.745Z,100.00
2023-02-15T08:59:28.013Z,100.00
2023-02-15T09:01:58.342Z,100.00
2023-02-15T09:04:27.935Z,100.00
2023-02-15T09:06:57.480Z,100.00
2023-02-15T09:09:27.323Z,100.00
2023-02-15T09:11:59.851Z,100.00
2023-02-15T09:14:30.016Z,100.00
2023-02-15T09:16:59.644Z,100.00
2023-02-15T09:19:29.359Z,100.00
2023-02-15T09:21:59.585Z,100.00
2023-02-15T09:24:29.160Z,100.00
2023-02-15T09:27:01.461Z,100.00
2023-02-15T09:29:31.091Z,100.00
2023-02-15T09:32:00.681Z,100.00
2023-02-15T09:34:34.046Z,100.00
2023-02-15T09:37:04.775Z,100.00
2023-02-15T09:39:39.973Z,99.19
2023-02-15T09:42:40.674Z,99.65
2023-02-15T09:45:35.370Z,95.37
2023-02-15T09:48:28.662Z,98.09
2023-02-15T09:51:09.486Z,96.79
2023-02-15T09:53:57.712Z,97.49
2023-02-15T09:56:37.992Z,100.00
2023-02-15T09:59:20.861Z,100.00
2023-02-15T10:02:00.538Z,100.00
2023-02-15T10:04:45.372Z,100.00
2023-02-15T10:07:28.924Z,100.00
2023-02-15T10:10:22.362Z,100.00
2023-02-15T10:13:08.216Z,100.00
2023-02-15T10:16:00.913Z,100.00
2023-02-15T10:18:53.831Z,100.00
2023-02-15T10:21:41.364Z,100.00
2023-02-15T10:24:31.527Z,100.00
2023-02-15T10:27:10.567Z,100.00
2023-02-15T10:29:42.437Z,100.00
2023-02-15T10:32:27.212Z,100.00
2023-02-15T10:35:04.318Z,100.00
2023-02-15T10:37:50.477Z,96.67
2023-02-15T10:40:28.845Z,97.62
2023-02-15T10:43:18.587Z,100.00
2023-02-15T10:46:00.465Z,100.00
2023-02-15T10:48:58.689Z,100.00
2023-02-15T10:51:38.169Z,100.00
2023-02-15T10:54:19.223Z,100.00
2023-02-15T10:56:58.383Z,100.00
2023-02-15T10:59:44.934Z,100.00
2023-02-15T11:02:24.404Z,100.00
2023-02-15T11:05:12.613Z,100.00
2023-02-15T11:07:45.542Z,100.00
2023-02-15T11:10:28.093Z,100.00
2023-02-15T11:12:59.764Z,100.00
2023-02-15T11:15:35.709Z,100.00
2023-02-15T11:18:13.406Z,100.00
2023-02-15T11:20:50.365Z,100.00
2023-02-15T11:23:21.170Z,100.00
2023-02-15T11:25:59.887Z,100.00
2023-02-15T11:28:35.110Z,100.00
2023-02-15T11:31:20.978Z,100.00
2023-02-15T11:33:55.055Z,95.99
2023-02-15T11:36:32.468Z,94.92
2023-02-15T11:39:06.374Z,95.61
2023-02-15T11:41:41.237Z,97.33
2023-02-15T11:44:16.550Z,93.53
2023-02-15T11:46:46.357Z,91.03
2023-02-15T11:49:26.505Z,89.80
2023-02-15T11:51:59.877Z,95.14
2023-02-15T11:54:33.531Z,97.88
2023-02-15T11:57:08.493Z,100.00
2023-02-15T11:59:43.560Z,100.00
2023-02-15T12:02:20.556Z,100.00
2023-02-15T12:04:55.113Z,97.99
2023-02-15T12:07:30.242Z,95.91
2023-02-15T12:10:08.169Z,91.85
2023-02-15T12:12:39.104Z,92.40
2023-02-15T12:15:10.662Z,91.92
2023-02-15T12:17:43.866Z,90.48
2023-02-15T12:20:28.212Z,90.85
2023-02-15T12:23:05.940Z,90.56
2023-02-15T12:25:41.034Z,91.33
2023-02-15T12:28:28.040Z,91.88
2023-02-15T12:30:59.110Z,93.00
2023-02-15T12:33:33.353Z,95.42
2023-02-15T12:36:07.750Z,98.38
2023-02-15T12:38:41.057Z,100.00
2023-02-15T12:41:27.198Z,97.54
2023-02-15T12:44:14.252Z,100.00
2023-02-15T12:46:45.869Z,100.00
2023-02-15T12:49:21.642Z,100.00
2023-02-15T12:51:53.644Z,100.00
2023-02-15T12:54:36.644Z,100.00
2023-02-15T12:57:25.703Z,100.00
2023-02-15T12:59:57.657Z,100.00
2023-02-15T13:02:30.729Z,100.00
2023-02-15T13:05:07.446Z,100.00
2023-02-15T13:07:37.174Z,100.00
2023-02-15T13:10:25.592Z,100.00
2023-02-15T13:12:56.871Z,100.00
2023-02-15T13:15:35.145Z,100.00
2023-02-15T13:18:06.755Z,100.00
2023-02-15T13:20:41.694Z,100.00
2023-02-15T13:23:23.906Z,100.00
2023-02-15T13:25:58.004Z,100.00
2023-02-15T13:28:35.928Z,100.00
2023-02-15T13:31:06.066Z,100.00
2023-02-15T13:33:40.780Z,100.00
2023-02-15T13:36:19.138Z,100.00
2023-02-15T13:39:03.771Z,100.00
2023-02-15T13:41:43.860Z,100.00
2023-02-15T13:44:21.764Z,100.00
2023-02-15T13:47:05.403Z,100.00
2023-02-15T13:49:50.422Z,100.00
2023-02-15T13:52:24.116Z,100.00
2023-02-15T13:55:13.305Z,98.76
2023-02-15T13:58:14.853Z,91.77
2023-02-15T14:00:51.929Z,87.06
2023-02-15T14:03:47.703Z,85.94
2023-02-15T14:06:38.222Z,83.97
2023-02-15T14:09:18.934Z,85.29
2023-02-15T14:11:58.365Z,85.50
2023-02-15T14:14:42.920Z,84.91
2023-02-15T14:17:21.630Z,84.75
2023-02-15T14:19:57.066Z,86.37
2023-02-15T14:22:35.438Z,84.00
2023-02-15T14:25:21.016Z,84.46
2023-02-15T14:28:00.011Z,83.43
2023-02-15T14:30:36.267Z,84.10
2023-02-15T14:33:10.532Z,85.71
2023-02-15T14:35:40.862Z,85.05
2023-02-15T14:38:19.591Z,86.19
2023-02-15T14:41:03.563Z,85.24
2023-02-15T14:43:46.049Z,85.18
2023-02-15T14:46:25.894Z,84.36
2023-02-15T14:48:58.314Z,86.53
2023-02-15T14:51:59.855Z,83.56
2023-02-15T14:54:57.715Z,83.85
2023-02-15T14:57:34.081Z,87.12
2023-02-15T15:00:25.981Z,86.69
2023-02-15T15:02:58.364Z,85.94
2023-02-15T15:05:35.869Z,85.17
2023-02-15T15:08:08.280Z,85.66
2023-02-15T15:10:42.289Z,85.37
2023-02-15T15:13:42.430Z,87.77
2023-02-15T15:16:28.443Z,89.62
2023-02-15T15:19:02.086Z,90.92
2023-02-15T15:21:56.371Z,90.28
2023-02-15T15:24:54.761Z,90.35
2023-02-15T15:27:44.730Z,88.94
2023-02-15T15:30:44.524Z,89.65
2023-02-15T15:33:30.362Z,91.73
2023-02-15T15:36:39.576Z,89.30
2023-02-15T15:39:24.456Z,91.51
2023-02-15T15:42:01.746Z,93.65
2023-02-15T15:45:06.907Z,95.84
2023-02-15T15:48:06.366Z,96.47
2023-02-15T15:50:37.772Z,92.80
2023-02-15T15:53:14.205Z,91.41
2023-02-15T15:55:55.211Z,88.53
2023-02-15T15:58:26.363Z,87.89
2023-02-15T16:00:59.718Z,89.65
2023-02-15T16:03:31.744Z,90.63
2023-02-15T16:06:02.289Z,92.23
2023-02-15T16:08:40.999Z,90.30
2023-02-15T16:11:14.971Z,88.70
2023-02-15T16:13:45.036Z,89.82
2023-02-15T16:16:16.791Z,92.16
2023-02-15T16:18:46.497Z,93.90
2023-02-15T16:21:23.830Z,95.00
2023-02-15T16:24:17.363Z,96.39
2023-02-15T16:27:04.265Z,95.73
2023-02-15T16:29:36.014Z,98.19
2023-02-15T16:32:07.815Z,100.00
2023-02-15T16:34:37.405Z,100.00
2023-02-15T16:37:17.111Z,100.00
2023-02-15T16:39:51.512Z,100.00
2023-02-15T16:42:22.023Z,100.00
2023-02-15T16:44:54.929Z,100.00
2023-02-15T16:47:28.273Z,100.00
2023-02-15T16:50:00.990Z,100.00
2023-02-15T16:52:32.780Z,100.00
2023-02-15T16:55:09.356Z,100.00
2023-02-15T16:57:42.017Z,100.00
2023-02-15T17:00:21.712Z,100.00
2023-02-15T17:03:03.579Z,100.00
2023-02-15T17:05:35.961Z,100.00
2023-02-15T17:08:18.510Z,100.00
2023-02-15T17:11:08.056Z,100.00
2023-02-15T17:13:38.075Z,100.00
2023-02-15T17:16:32.859Z,100.00
2023-02-15T17:19:04.112Z,100.00
2023-02-15T17:21:37.271Z,100.00
2023-02-15T17:24:07.690Z,100.00
2023-02-15T17:26:41.248Z,100.00
2023-02-15T17:29:18.160Z,100.00
2023-02-15T17:31:52.356Z,100.00
2023-02-15T17:34:52.033Z,100.00
2023-02-15T17:37:30.787Z,100.00
2023-02-15T17:40:02.054Z,100.00
2023-02-15T17:42:34.214Z,100.00
2023-02-15T17:45:04.200Z,100.00
2023-02-15T17:47:33.801Z,100.00
2023-02-15T17:50:06.427Z,100.00
2023-02-15T17:52:36.555Z,100.00
2023-02-15T17:55:28.418Z,100.00
2023-02-15T17:58:00.571Z,100.00
2023-02-15T18:00:42.906Z,100.00
2023-02-15T18:03:26.194Z,100.00
2023-02-15T18:06:08.326Z,100.00
2023-02-15T18:08:50.834Z,100.00
2023-02-15T18:11:32.936Z,100.00
2023-02-15T18:14:05.634Z,100.00
2023-02-15T18:16:38.699Z,100.00
2023-02-15T18:19:13.055Z,100.00
2023-02-15T18:21:42.651Z,100.00
2023-02-15T18:24:18.185Z,100.00
2023-02-15T18:26:47.920Z,100.00
2023-02-15T18:29:20.105Z,100.00
2023-02-15T18:31:54.276Z,100.00
2023-02-15T18:34:27.673Z,100.00
2023-02-15T18:36:58.368Z,100.00
2023-02-15T18:39:32.341Z,100.00
2023-02-15T18:42:03.217Z,100.00
2023-02-15T18:44:35.459Z,100.00
2023-02-15T18:47:05.032Z,100.00
2023-02-15T18:49:34.592Z,100.00
2023-02-15T18:52:05.525Z,100.00
2023-02-15T18:54:35.184Z,100.00
2023-02-15T18:57:06.366Z,100.00
2023-02-15T18:59:38.540Z,100.00
2023-02-15T19:02:15.149Z,100.00
2023-02-15T19:04:44.728Z,100.00
2023-02-15T19:07:20.501Z,100.00
2023-02-15T19:09:54.607Z,100.00
2023-02-15T19:12:24.510Z,100.00
2023-02-15T19:14:56.957Z,100.00
2023-02-15T19:17:27.925Z,100.00
2023-02-15T19:19:57.501Z,100.00
2023-02-15T19:22:30.491Z,100.00
2023-02-15T19:25:04.771Z,100.00
2023-02-15T19:27:37.012Z,100.00
2023-02-15T19:30:18.148Z,100.00
2023-02-15T19:32:48.725Z,100.00
2023-02-15T19:35:21.916Z,100.00
2023-02-15T19:37:53.825Z,100.00
2023-02-15T19:40:25.646Z,100.00
2023-02-15T19:42:55.430Z,100.00
2023-02-15T19:45:29.408Z,100.00
2023-02-15T19:47:59.807Z,100.00
2023-02-15T19:50:33.724Z,100.00
2023-02-15T19:53:04.837Z,100.00
2023-02-15T19:55:37.962Z,100.00
2023-02-15T19:58:14.637Z,100.00
2023-02-15T20:00:47.320Z,100.00
2023-02-15T20:03:17.208Z,100.00
2023-02-15T20:05:47.614Z,100.00
2023-02-15T20:08:19.987Z,100.00
2023-02-15T20:10:50.097Z,100.00
2023-02-15T20:13:21.668Z,100.00
2023-02-15T20:15:54.802Z,100.00
2023-02-15T20:18:24.350Z,100.00
2023-02-15T20:20:56.010Z,100.00
2023-02-15T20:23:30.674Z,100.00
2023-02-15T20:26:02.659Z,100.00
2023-02-15T20:28:34.346Z,100.00
2023-02-15T20:31:07.372Z,100.00
2023-02-15T20:33:37.177Z,100.00
2023-02-15T20:36:07.635Z,100.00
2023-02-15T20:38:37.288Z,100.00
2023-02-15T20:41:19.796Z,100.00
2023-02-15T20:43:49.487Z,100.00
2023-02-15T20:46:21.619Z,100.00
2023-02-15T20:48:51.223Z,100.00
2023-02-15T20:51:23.796Z,100.00
2023-02-15T20:53:53.486Z,100.00
2023-02-15T20:56:24.804Z,100.00
2023-02-15T20:58:55.505Z,100.00
2023-02-15T21:01:27.676Z,100.00
2023-02-15T21:03:57.293Z,100.00
2023-02-15T21:06:26.911Z,100.00
2023-02-15T21:08:56.799Z,100.00
2023-02-15T21:11:27.627Z,100.00
2023-02-15T21:13:57.330Z,100.00
2023-02-15T21:16:29.653Z,100.00
2023-02-15T21:18:59.271Z,100.00
2023-02-15T21:21:28.946Z,100.00
2023-02-15T21:23:58.540Z,100.00
2023-02-15T21:26:28.152Z,100.00
2023-02-15T21:28:57.852Z,100.00
2023-02-15T21:31:30.211Z,100.00
2023-02-15T21:34:00.277Z,100.00
2023-02-15T21:36:30.831Z,100.00
2023-02-15T21:39:00.469Z,100.00
2023-02-15T21:41:42.638Z,100.00
2023-02-15T21:44:31.282Z,100.00
2023-02-15T21:47:16.026Z,100.00
2023-02-15T21:49:45.638Z,100.00
2023-02-15T21:52:13.440Z,100.00
2023-02-15T21:54:43.518Z,100.00
2023-02-15T21:57:16.622Z,100.00
2023-02-15T21:59:47.332Z,100.00
2023-02-15T22:02:32.227Z,100.00
2023-02-15T22:05:02.003Z,100.00
2023-02-15T22:07:31.625Z,100.00
2023-02-15T22:10:01.149Z,100.00
2023-02-15T22:12:30.738Z,100.00
2023-02-15T22:15:01.735Z,100.00
2023-02-15T22:17:34.576Z,100.00
2023-02-15T22:20:04.146Z,100.00
2023-02-15T22:22:34.538Z,100.00
2023-02-15T22:25:04.169Z,100.00
2023-02-15T22:27:37.688Z,100.00
2023-02-15T22:30:14.542Z,100.00
2023-02-15T22:32:46.695Z,100.00
2023-02-15T22:35:20.255Z,100.00
2023-02-15T22:37:49.856Z,100.00
2023-02-15T22:40:20.840Z,100.00
2023-02-15T22:42:53.380Z,100.00
2023-02-15T22:45:28.169Z,100.00
2023-02-15T22:48:02.672Z,100.00
2023-02-15T22:50:34.286Z,100.00
2023-02-15T22:53:06.105Z,100.00
2023-02-15T22:55:40.014Z,100.00
2023-02-15T22:58:09.795Z,100.00
2023-02-15T23:00:42.629Z,100.00
2023-02-15T23:03:23.555Z,100.00
2023-02-15T23:05:53.159Z,100.00
2023-02-15T23:08:23.302Z,100.00
2023-02-15T23:10:58.139Z,100.00
2023-02-15T23:13:32.294Z,100.00
2023-02-15T23:16:04.645Z,100.00
2023-02-15T23:18:40.535Z,100.00
2023-02-15T23:21:20.663Z,100.00
2023-02-15T23:23:52.099Z,100.00
2023-02-15T23:26:24.958Z,100.00
2023-02-15T23:28:54.923Z,100.00
2023-02-15T23:31:26.902Z,100.00
2023-02-15T23:34:00.176Z,100.00
2023-02-15T23:36:32.768Z,100.00
2023-02-15T23:39:26.174Z,100.00
2023-02-15T23:41:53.233Z,100.00
2023-02-15T23:44:22.919Z,100.00
2023-02-15T23:46:53.420Z,100.00
2023-02-15T23:49:26.354Z,100.00
2023-02-15T23:51:57.420Z,100.00
2023-02-15T23:54:28.476Z,100.00
2023-02-15T23:57:02.298Z,100.00
2023-02-15T23:59:33.828Z,100.00
